createdAt,value
2022-08-30T00:01:56.821Z,9.30
2022-08-30T00:06:51.520Z,3.15
2022-08-30T00:11:49.876Z,2.80
2022-08-30T00:16:44.214Z,2.60
2022-08-30T00:21:37.660Z,2.67
2022-08-30T00:26:32.341Z,3.42
2022-08-30T00:31:25.154Z,6.68
2022-08-30T00:36:18.842Z,9.98
2022-08-30T00:41:12.819Z,5.35
2022-08-30T00:46:09.057Z,5.32
2022-08-30T00:51:05.746Z,7.28
2022-08-30T00:56:00.188Z,10.13
2022-08-30T01:00:56.343Z,6.43
2022-08-30T01:05:50.744Z,5.85
2022-08-30T01:10:44.732Z,6.60
2022-08-30T01:15:38.931Z,5.78
2022-08-30T01:20:42.357Z,4.28
2022-08-30T01:25:37.971Z,3.95
2022-08-30T01:30:33.699Z,5.57
2022-08-30T01:35:29.112Z,7.30
2022-08-30T01:40:23.982Z,5.22
2022-08-30T01:45:18.071Z,5.82
2022-08-30T01:50:12.372Z,3.35
2022-08-30T01:55:07.832Z,3.85
2022-08-30T02:00:01.877Z,3.47
2022-08-30T02:05:06.468Z,8.23
2022-08-30T02:09:59.736Z,4.45
2022-08-30T02:14:53.942Z,3.80
2022-08-30T02:19:47.801Z,4.03
2022-08-30T02:24:41.077Z,12.88
2022-08-30T02:29:34.964Z,3.33
2022-08-30T02:34:28.307Z,6.05
2022-08-30T02:39:22.525Z,5.53
2022-08-30T02:44:16.210Z,4.90
2022-08-30T02:49:32.630Z,4.32
2022-08-30T02:54:24.095Z,6.40
2022-08-30T02:59:19.129Z,4.70
2022-08-30T03:04:14.003Z,4.82
2022-08-30T03:09:08.214Z,6.53
2022-08-30T03:14:02.652Z,7.50
2022-08-30T03:18:56.216Z,9.45
2022-08-30T03:23:50.006Z,7.90
2022-08-30T03:28:44.244Z,11.43
2022-08-30T03:33:37.883Z,8.13
2022-08-30T03:38:32.026Z,12.93
2022-08-30T03:43:26.290Z,7.50
2022-08-30T03:48:20.980Z,7.22
2022-08-30T03:53:13.860Z,10.45
2022-08-30T03:58:08.026Z,6.75
2022-08-30T04:03:01.715Z,7.30
2022-08-30T04:07:55.673Z,5.07
2022-08-30T04:12:50.226Z,7.20
2022-08-30T04:17:43.732Z,5.32
2022-08-30T04:22:38.262Z,5.20
2022-08-30T04:27:32.341Z,4.70
2022-08-30T04:32:26.808Z,5.85
2022-08-30T04:37:21.529Z,8.25
2022-08-30T04:42:16.988Z,7.82
2022-08-30T04:47:10.934Z,8.93
2022-08-30T04:52:07.188Z,18.40
2022-08-30T04:57:01.855Z,10.60
2022-08-30T05:01:56.284Z,18.17
2022-08-30T05:06:49.688Z,12.13
2022-08-30T05:11:44.980Z,11.52
2022-08-30T05:16:37.994Z,12.25
2022-08-30T05:21:32.806Z,12.75
2022-08-30T05:26:28.882Z,11.35
2022-08-30T05:31:27.355Z,15.40
2022-08-30T05:36:24.509Z,11.82
2022-08-30T05:41:20.727Z,12.13
2022-08-30T05:46:19.839Z,13.75
2022-08-30T05:56:14.586Z,10.63
2022-08-30T06:01:09.322Z,8.70
2022-08-30T06:06:07.341Z,8.80
2022-08-30T06:15:55.126Z,6.75
2022-08-30T06:20:50.241Z,6.60
2022-08-30T06:25:44.079Z,5.93
2022-08-30T06:30:37.843Z,8.75
2022-08-30T06:35:46.811Z,14.90
2022-08-30T06:40:51.864Z,28.52
2022-08-30T06:45:46.075Z,14.85
2022-08-30T06:50:42.739Z,19.48
2022-08-30T06:55:36.880Z,29.77
2022-08-30T07:00:29.169Z,27.23
2022-08-30T07:05:24.535Z,19.60
2022-08-30T07:10:18.583Z,34.00
2022-08-30T07:15:13.331Z,12.73
2022-08-30T07:20:08.245Z,30.63
2022-08-30T07:25:02.675Z,13.65
2022-08-30T07:29:56.719Z,6.65
2022-08-30T07:34:51.753Z,16.13
2022-08-30T07:39:47.762Z,10.07
2022-08-30T07:44:42.292Z,7.38
2022-08-30T07:49:35.832Z,8.30
2022-08-30T07:54:30.095Z,4.10
2022-08-30T07:59:24.641Z,17.33
2022-08-30T08:04:23.066Z,5.15
2022-08-30T08:09:16.505Z,6.18
2022-08-30T08:14:10.991Z,5.93
2022-08-30T08:19:05.908Z,6.00
2022-08-30T08:24:01.078Z,9.38
2022-08-30T08:28:56.661Z,6.87
2022-08-30T08:33:50.765Z,7.07
2022-08-30T08:38:45.472Z,8.90
2022-08-30T08:43:39.476Z,7.22
2022-08-30T08:48:59.072Z,6.55
2022-08-30T08:53:59.999Z,5.68
2022-08-30T08:58:58.743Z,3.60
2022-08-30T09:03:52.728Z,5.18
2022-08-30T09:08:46.325Z,9.05
2022-08-30T09:13:40.313Z,10.27
2022-08-30T09:18:49.039Z,7.47
2022-08-30T09:24:02.803Z,6.97
2022-08-30T09:28:59.251Z,11.15
2022-08-30T09:33:56.655Z,9.30
2022-08-30T09:39:02.941Z,5.80
2022-08-30T09:44:17.272Z,7.87
2022-08-30T09:49:32.468Z,5.78
2022-08-30T09:54:31.086Z,7.57
2022-08-30T09:59:56.598Z,13.45
2022-08-30T10:05:25.197Z,6.60
2022-08-30T10:10:27.252Z,8.85
2022-08-30T10:15:38.582Z,9.30
2022-08-30T10:20:42.710Z,10.38
2022-08-30T10:25:44.341Z,6.50
2022-08-30T10:30:40.204Z,4.32
2022-08-30T10:35:47.707Z,7.10
2022-08-30T10:41:02.884Z,8.02
2022-08-30T10:45:58.008Z,9.20
2022-08-30T10:50:54.289Z,5.37
2022-08-30T11:01:04.269Z,5.25
2022-08-30T11:06:26.964Z,6.20
2022-08-30T11:11:43.837Z,5.43
2022-08-30T11:16:38.743Z,25.52
2022-08-30T11:21:39.034Z,4.80
2022-08-30T11:26:49.076Z,4.53
2022-08-30T11:31:43.288Z,5.03
2022-08-30T11:36:46.217Z,6.88
2022-08-30T11:41:46.086Z,4.57
2022-08-30T11:46:45.399Z,10.00
2022-08-30T11:57:30.739Z,6.07
2022-08-30T12:02:49.088Z,5.03
2022-08-30T12:08:00.980Z,6.10
2022-08-30T12:13:11.530Z,3.42
2022-08-30T12:30:14.570Z,4.90
2022-08-30T12:35:30.811Z,6.45
2022-08-30T12:40:56.593Z,4.30
2022-08-30T12:51:26.686Z,3.67
2022-08-30T12:56:49.487Z,5.07
2022-08-30T13:02:05.979Z,5.88
2022-08-30T13:24:21.384Z,7.88
2022-08-30T13:29:29.492Z,6.28
2022-08-30T13:34:28.666Z,5.75
2022-08-30T13:44:31.340Z,5.55
2022-08-30T13:49:44.995Z,4.65
2022-08-30T13:54:38.711Z,11.85
2022-08-30T13:59:34.102Z,4.25
2022-08-30T14:04:28.483Z,5.88
2022-08-30T14:09:22.936Z,4.72
2022-08-30T14:14:25.189Z,8.63
2022-08-30T14:19:30.008Z,10.23
2022-08-30T14:24:27.337Z,10.02
2022-08-30T14:29:28.449Z,10.10
2022-08-30T14:34:23.769Z,7.18
2022-08-30T14:39:23.085Z,30.55
2022-08-30T14:44:17.905Z,12.38
2022-08-30T14:49:12.683Z,6.20
2022-08-30T14:54:06.903Z,15.25
2022-08-30T14:59:03.735Z,11.15
2022-08-30T15:03:57.289Z,4.97
2022-08-30T15:08:53.118Z,6.55
2022-08-30T15:13:48.050Z,8.63
2022-08-30T15:18:42.767Z,11.38
2022-08-30T15:23:36.283Z,9.18
2022-08-30T15:28:30.745Z,3.50
2022-08-30T15:33:25.088Z,4.68
2022-08-30T15:38:19.364Z,4.72
2022-08-30T15:43:16.344Z,5.20
2022-08-30T15:48:10.259Z,2.90
2022-08-30T15:53:07.583Z,4.03
2022-08-30T15:58:01.779Z,4.25
2022-08-30T16:02:56.282Z,5.35
2022-08-30T16:07:49.916Z,5.07
2022-08-30T16:12:44.628Z,5.90
2022-08-30T16:17:39.343Z,6.50
2022-08-30T16:22:33.143Z,4.28
2022-08-30T16:27:27.635Z,3.47
2022-08-30T16:32:22.202Z,6.03
2022-08-30T16:37:17.980Z,5.40
2022-08-30T16:42:13.299Z,5.93
2022-08-30T16:47:14.508Z,8.05
2022-08-30T16:52:09.025Z,4.80
2022-08-30T16:57:06.476Z,5.45
2022-08-30T17:02:00.012Z,5.28
2022-08-30T17:06:54.069Z,4.22
2022-08-30T17:11:48.535Z,7.30
2022-08-30T17:16:42.877Z,10.55
2022-08-30T17:21:40.088Z,15.18
2022-08-30T17:26:36.667Z,14.32
2022-08-30T17:31:31.566Z,10.40
2022-08-30T17:36:25.096Z,13.07
2022-08-30T17:41:19.123Z,11.82
2022-08-30T17:46:20.419Z,8.77
2022-08-30T17:51:14.907Z,8.20
2022-08-30T17:56:10.198Z,7.53
2022-08-30T18:01:11.461Z,7.80
2022-08-30T18:06:07.101Z,10.50
2022-08-30T18:11:00.245Z,6.07
2022-08-30T18:15:53.905Z,7.00
2022-08-30T18:20:48.087Z,7.32
2022-08-30T18:25:42.004Z,9.93
2022-08-30T18:30:41.410Z,12.32
2022-08-30T18:35:36.635Z,9.60
2022-08-30T18:40:31.089Z,7.32
2022-08-30T18:45:25.336Z,11.45
2022-08-30T18:50:19.606Z,6.55
2022-08-30T18:55:14.355Z,6.95
2022-08-30T19:00:11.283Z,8.27
2022-08-30T19:05:06.072Z,8.13
2022-08-30T19:09:59.284Z,8.45
2022-08-30T19:14:53.619Z,8.55
2022-08-30T19:19:52.290Z,7.63
2022-08-30T19:24:46.291Z,7.18
2022-08-30T19:29:41.717Z,9.02
2022-08-30T19:34:38.295Z,8.00
2022-08-30T19:39:31.731Z,7.70
2022-08-30T19:44:25.541Z,7.97
2022-08-30T19:49:19.701Z,8.70
2022-08-30T19:54:19.669Z,6.70
2022-08-30T19:59:12.852Z,10.88
2022-08-30T20:04:07.320Z,9.98
2022-08-30T20:09:01.654Z,7.68
2022-08-30T20:13:56.178Z,7.95
2022-08-30T20:18:50.483Z,9.05
2022-08-30T20:23:44.708Z,9.10
2022-08-30T20:28:39.447Z,13.82
2022-08-30T20:33:34.524Z,11.48
2022-08-30T20:38:29.110Z,12.52
2022-08-30T20:43:24.563Z,12.95
2022-08-30T20:48:19.012Z,12.23
2022-08-30T20:53:13.364Z,11.50
2022-08-30T20:58:07.987Z,10.82
2022-08-30T21:03:01.971Z,12.02
2022-08-30T21:08:02.336Z,10.90
2022-08-30T21:13:03.610Z,11.00
2022-08-30T21:17:57.443Z,16.60
2022-08-30T21:22:51.704Z,10.25
2022-08-30T21:27:45.527Z,18.92
2022-08-30T21:32:39.348Z,11.07
2022-08-30T21:37:36.153Z,10.63
2022-08-30T21:42:31.095Z,11.88
2022-08-30T21:47:24.877Z,10.40
2022-08-30T21:52:17.770Z,9.73
2022-08-30T21:57:12.084Z,11.30
2022-08-30T22:02:06.470Z,14.52
2022-08-30T22:07:01.108Z,20.48
2022-08-30T22:11:54.842Z,15.55
2022-08-30T22:16:48.789Z,15.88
2022-08-30T22:21:43.006Z,16.05
2022-08-30T22:26:37.783Z,16.25
2022-08-30T22:31:31.478Z,14.77
2022-08-30T22:36:32.567Z,16.67
2022-08-30T22:41:31.232Z,16.60
2022-08-30T22:46:34.341Z,18.83
2022-08-30T22:51:28.285Z,17.52
2022-08-30T22:56:23.831Z,18.52
2022-08-30T23:01:43.111Z,18.05
2022-08-30T23:06:37.908Z,18.27
2022-08-30T23:11:33.456Z,19.90
2022-08-30T23:16:27.557Z,28.55
2022-08-30T23:21:31.689Z,23.52
2022-08-30T23:26:44.404Z,22.70
2022-08-30T23:31:56.315Z,26.60
2022-08-30T23:37:08.217Z,26.23
2022-08-30T23:42:20.659Z,29.08
2022-08-30T23:47:31.932Z,29.25
2022-08-30T23:52:43.861Z,26.90
2022-08-30T23:57:56.758Z,29.08
